createdAt,value
2022-12-05T00:00:01.056Z,100015.09
2022-12-05T00:02:49.627Z,100011.94
2022-12-05T00:05:40.961Z,100026.22
2022-12-05T00:08:29.466Z,100027.56
2022-12-05T00:11:20.355Z,100030.38
2022-12-05T00:14:10.949Z,100007.63
2022-12-05T00:16:59.782Z,100037.19
2022-12-05T00:19:53.608Z,100031.03
2022-12-05T00:22:45.064Z,100008.47
2022-12-05T00:25:33.623Z,100031.50
2022-12-05T00:28:22.069Z,100016.28
2022-12-05T00:31:13.132Z,100027.03
2022-12-05T00:34:02.232Z,100007.63
2022-12-05T00:36:51.456Z,100020.88
2022-12-05T00:39:40.182Z,100043.63
2022-12-05T00:42:28.664Z,100040.47
2022-12-05T00:45:17.284Z,100030.34
2022-12-05T00:48:07.271Z,100034.53
2022-12-05T00:51:01.633Z,100042.66
2022-12-05T00:53:50.220Z,100048.44
2022-12-05T00:56:39.029Z,100052.75
2022-12-05T00:59:27.489Z,100050.78
2022-12-05T01:02:15.996Z,100050.44
2022-12-05T01:05:06.732Z,100053.09
2022-12-05T01:07:55.212Z,100051.09
2022-12-05T01:10:43.661Z,100057.41
2022-12-05T01:13:32.709Z,100057.56
2022-12-05T01:16:23.228Z,100044.63
2022-12-05T01:19:13.347Z,100047.78
2022-12-05T01:22:03.142Z,100061.91
2022-12-05T01:24:51.635Z,100060.91
2022-12-05T01:27:40.372Z,100050.78
2022-12-05T01:30:28.880Z,100064.38
2022-12-05T01:33:17.670Z,100075.31
2022-12-05T01:36:07.751Z,100051.72
2022-12-05T01:38:58.081Z,100080.97
2022-12-05T01:41:47.962Z,100083.47
2022-12-05T01:45:02.994Z,100082.13
2022-12-05T01:47:51.501Z,100078.81
2022-12-05T01:50:40.030Z,100083.78
2022-12-05T01:53:29.628Z,100080.97
2022-12-05T01:56:19.632Z,100075.81
2022-12-05T01:59:10.690Z,100080.47
2022-12-05T02:01:59.424Z,100084.97
2022-12-05T02:04:58.069Z,100091.09
2022-12-05T02:07:47.559Z,100091.06
2022-12-05T02:10:40.319Z,100089.59
2022-12-05T02:14:00.757Z,100089.41
2022-12-05T02:16:55.037Z,100090.22
2022-12-05T02:20:05.494Z,100105.34
2022-12-05T02:23:13.656Z,100100.53
2022-12-05T02:26:19.327Z,100067.47
2022-12-05T02:29:35.393Z,100122.28
2022-12-05T02:32:36.734Z,100111.50
2022-12-05T02:35:33.600Z,100121.94
2022-12-05T02:38:28.326Z,100106.69
2022-12-05T02:41:20.416Z,100119.13
2022-12-05T02:44:12.638Z,100126.41
2022-12-05T02:47:01.564Z,100134.53
2022-12-05T02:49:53.951Z,100124.59
2022-12-05T02:52:43.208Z,100133.41
2022-12-05T02:55:32.371Z,100123.59
2022-12-05T02:58:24.196Z,100129.22
2022-12-05T03:01:13.022Z,100135.56
2022-12-05T03:04:03.496Z,100150.66
2022-12-05T03:06:55.445Z,100068.28
2022-12-05T03:09:46.907Z,100151.19
2022-12-05T03:12:39.807Z,100151.16
2022-12-05T03:15:31.325Z,100152.63
2022-12-05T03:18:24.071Z,100121.06
2022-12-05T03:21:19.356Z,100155.97
2022-12-05T03:24:11.622Z,100142.03
2022-12-05T03:27:08.651Z,100145.84
2022-12-05T03:29:58.802Z,100147.66
2022-12-05T03:32:52.696Z,100058.66
2022-12-05T03:35:44.939Z,100109.97
2022-12-05T03:38:36.503Z,100138.38
2022-12-05T03:41:31.222Z,100138.38
2022-12-05T03:44:21.977Z,100129.22
2022-12-05T03:47:14.042Z,100134.69
2022-12-05T03:50:06.123Z,99985.28
2022-12-05T03:53:19.110Z,100127.41
2022-12-05T03:56:09.766Z,100136.38
2022-12-05T03:59:05.775Z,100139.03
2022-12-05T04:01:55.673Z,100118.63
2022-12-05T04:04:47.954Z,100109.00
2022-12-05T04:07:40.434Z,100146.69
2022-12-05T04:10:31.430Z,100146.69
2022-12-05T04:13:23.269Z,100144.34
2022-12-05T04:16:34.385Z,100145.34
2022-12-05T04:19:26.328Z,100133.91
2022-12-05T04:22:13.810Z,100136.88
2022-12-05T04:25:21.503Z,100147.00
2022-12-05T04:28:22.256Z,100144.34
2022-12-05T04:31:15.049Z,100145.31
2022-12-05T04:34:05.720Z,100149.66
2022-12-05T04:36:57.578Z,100154.78
2022-12-05T04:39:50.002Z,100154.78
2022-12-05T04:42:39.324Z,100150.63
2022-12-05T04:45:28.366Z,100160.75
2022-12-05T04:48:18.748Z,100162.56
2022-12-05T04:51:09.144Z,100167.72
2022-12-05T04:54:00.449Z,100178.66
2022-12-05T04:56:50.091Z,100188.09
2022-12-05T04:59:38.560Z,100170.53
2022-12-05T05:02:31.799Z,100178.50
2022-12-05T05:05:21.902Z,100187.78
2022-12-05T05:08:18.392Z,100173.50
2022-12-05T05:11:12.209Z,100172.88
2022-12-05T05:14:01.217Z,100164.59
2022-12-05T05:16:49.728Z,100144.47
2022-12-05T05:19:38.197Z,100157.31
2022-12-05T05:22:27.974Z,100155.47
2022-12-05T05:25:16.604Z,100175.06
2022-12-05T05:28:05.517Z,100158.09
2022-12-05T05:30:53.969Z,100186.19
2022-12-05T05:33:42.571Z,100192.31
2022-12-05T05:36:31.045Z,100209.06
2022-12-05T05:39:20.931Z,100208.75
2022-12-05T05:42:09.439Z,100205.25
2022-12-05T05:44:57.914Z,100205.09
2022-12-05T05:47:46.723Z,100202.28
2022-12-05T05:50:35.198Z,100208.28
2022-12-05T05:53:23.698Z,100212.75
2022-12-05T05:56:20.050Z,100209.13
2022-12-05T05:59:10.653Z,100061.56
2022-12-05T06:01:59.099Z,100204.59
2022-12-05T06:04:47.818Z,100204.59
2022-12-05T06:07:36.391Z,100207.25
2022-12-05T06:10:24.896Z,100191.28
2022-12-05T06:13:14.765Z,100227.34
2022-12-05T06:16:03.629Z,100233.66
2022-12-05T06:18:52.893Z,100238.31
2022-12-05T06:21:41.425Z,100232.50
2022-12-05T06:24:30.086Z,100233.66
2022-12-05T06:27:18.531Z,100233.31
2022-12-05T06:30:09.819Z,100236.47
2022-12-05T06:32:58.220Z,100231.66
2022-12-05T06:35:47.147Z,100232.66
2022-12-05T06:38:40.436Z,100244.91
2022-12-05T06:41:30.359Z,100244.75
2022-12-05T06:44:18.809Z,100257.38
2022-12-05T06:47:08.617Z,100248.41
2022-12-05T06:49:57.258Z,100254.25
2022-12-05T06:52:46.102Z,100250.28
2022-12-05T06:55:34.523Z,100258.25
2022-12-05T06:58:22.985Z,100258.25
2022-12-05T07:01:30.766Z,100263.88
2022-12-05T07:04:24.123Z,100272.84
2022-12-05T07:07:13.472Z,100276.50
2022-12-05T07:10:01.949Z,100277.16
2022-12-05T07:12:50.423Z,100280.44
2022-12-05T07:15:38.940Z,100273.97
2022-12-05T07:18:27.692Z,100290.09
2022-12-05T07:21:17.651Z,100302.06
2022-12-05T07:24:06.659Z,100300.56
2022-12-05T07:26:55.110Z,100295.97
2022-12-05T07:29:43.568Z,100301.47
2022-12-05T07:32:33.346Z,100306.94
2022-12-05T07:35:21.826Z,100305.13
2022-12-05T07:38:11.725Z,100315.13
2022-12-05T07:41:00.463Z,100320.47
2022-12-05T07:43:49.015Z,100313.19
2022-12-05T07:46:38.255Z,100296.06
2022-12-05T07:49:26.840Z,100313.38
2022-12-05T07:52:15.331Z,100314.22
2022-12-05T07:55:05.881Z,100311.88
2022-12-05T07:57:54.381Z,100324.84
2022-12-05T08:00:43.004Z,100325.19
2022-12-05T08:03:31.622Z,100319.69
2022-12-05T08:06:21.642Z,100322.53
2022-12-05T08:09:10.263Z,100308.56
2022-12-05T08:12:00.066Z,100325.50
2022-12-05T08:14:48.507Z,100319.53
2022-12-05T08:17:36.990Z,100322.16
2022-12-05T08:20:25.479Z,100326.47
2022-12-05T08:23:13.995Z,100327.78
2022-12-05T08:26:04.024Z,100332.44
2022-12-05T08:28:55.408Z,100332.44
2022-12-05T08:31:47.217Z,100334.75
2022-12-05T08:34:35.762Z,100338.56
2022-12-05T08:37:24.455Z,100345.53
2022-12-05T08:40:13.708Z,100347.53
2022-12-05T08:43:02.263Z,100314.56
2022-12-05T08:45:53.455Z,100347.69
2022-12-05T08:48:42.223Z,100343.00
2022-12-05T08:51:30.860Z,100348.19
2022-12-05T08:54:19.477Z,100359.66
2022-12-05T08:57:08.196Z,100351.84
2022-12-05T08:59:56.917Z,100358.00
2022-12-05T09:02:51.799Z,100365.66
2022-12-05T09:05:40.406Z,100376.28
2022-12-05T09:08:28.865Z,100375.28
2022-12-05T09:11:19.214Z,100377.94
2022-12-05T09:14:07.844Z,100348.66
2022-12-05T09:16:56.320Z,100383.28
2022-12-05T09:19:46.238Z,100365.81
2022-12-05T09:22:34.967Z,100399.44
2022-12-05T09:25:23.429Z,100398.59
2022-12-05T09:28:11.942Z,100405.94
2022-12-05T09:31:02.310Z,100408.59
2022-12-05T09:33:51.720Z,100404.59
2022-12-05T09:36:41.555Z,100414.59
2022-12-05T09:39:30.034Z,100420.59
2022-12-05T09:42:35.014Z,100434.88
2022-12-05T09:45:25.689Z,100441.03
2022-12-05T09:48:16.250Z,100431.22
2022-12-05T09:51:04.905Z,100420.91
2022-12-05T09:53:55.184Z,100418.94
2022-12-05T09:56:45.313Z,100407.97
2022-12-05T09:59:33.797Z,100414.97
2022-12-05T10:02:29.594Z,100405.34
2022-12-05T10:05:20.952Z,100410.13
2022-12-05T10:08:15.654Z,100424.44
2022-12-05T10:11:11.567Z,100390.50
2022-12-05T10:14:04.079Z,100414.94
2022-12-05T10:16:55.734Z,100426.94
2022-12-05T10:19:46.912Z,100395.31
2022-12-05T10:22:41.867Z,100420.97
2022-12-05T10:25:33.555Z,100401.16
2022-12-05T10:28:30.250Z,100410.00
2022-12-05T10:31:22.775Z,100407.00
2022-12-05T10:34:15.003Z,100416.31
2022-12-05T10:37:11.596Z,100407.66
2022-12-05T10:40:00.484Z,100406.34
2022-12-05T10:42:50.053Z,100417.81
2022-12-05T10:45:43.449Z,100398.53
2022-12-05T10:48:36.490Z,100399.84
2022-12-05T10:51:34.075Z,100395.53
2022-12-05T10:54:27.622Z,100404.38
2022-12-05T10:57:23.930Z,100397.72
2022-12-05T11:00:15.408Z,100402.19
2022-12-05T11:03:06.628Z,100390.72
2022-12-05T11:05:57.612Z,100393.06
2022-12-05T11:09:07.973Z,100404.03
2022-12-05T11:12:07.802Z,100407.34
2022-12-05T11:14:59.313Z,100367.91
2022-12-05T11:17:48.235Z,100402.19
2022-12-05T11:20:40.588Z,100396.72
2022-12-05T11:23:30.591Z,100373.25
2022-12-05T11:26:21.333Z,100392.56
2022-12-05T11:29:29.827Z,100399.03
2022-12-05T11:32:20.486Z,100392.88
2022-12-05T11:35:12.776Z,100371.25
2022-12-05T11:38:04.839Z,100394.69
2022-12-05T11:40:56.140Z,100391.16
2022-12-05T11:44:16.953Z,100392.91
2022-12-05T11:47:15.240Z,100391.88
2022-12-05T11:50:23.578Z,100384.22
2022-12-05T11:53:31.232Z,100389.56
2022-12-05T11:56:29.292Z,100376.84
2022-12-05T11:59:31.428Z,100386.72
2022-12-05T12:02:30.646Z,100387.19
2022-12-05T12:05:21.303Z,100385.34
2022-12-05T12:08:20.137Z,100379.84
2022-12-05T12:11:13.635Z,100385.06
2022-12-05T12:14:07.558Z,100382.41
2022-12-05T12:17:06.909Z,100376.59
2022-12-05T12:20:10.449Z,100381.75
2022-12-05T12:23:11.381Z,100379.56
2022-12-05T12:26:08.162Z,100364.63
2022-12-05T12:29:03.378Z,100349.00
2022-12-05T12:32:00.651Z,100378.53
2022-12-05T12:35:05.091Z,100380.72
2022-12-05T12:38:10.021Z,100374.56
2022-12-05T12:41:05.288Z,100364.88
2022-12-05T12:44:02.731Z,100380.38
2022-12-05T12:46:54.166Z,100375.38
2022-12-05T12:49:53.665Z,100378.53
2022-12-05T12:53:03.247Z,100380.88
2022-12-05T12:55:57.166Z,100372.09
2022-12-05T12:58:53.117Z,100382.19
2022-12-05T13:01:44.003Z,100386.03
2022-12-05T13:04:40.334Z,100368.91
2022-12-05T13:07:33.797Z,100388.03
2022-12-05T13:10:26.800Z,100384.84
2022-12-05T13:13:19.466Z,100389.38
2022-12-05T13:16:11.934Z,100382.00
2022-12-05T13:19:00.907Z,100384.50
2022-12-05T13:21:49.495Z,100382.34
2022-12-05T13:24:38.181Z,100390.34
2022-12-05T13:27:28.178Z,100389.50
2022-12-05T13:30:18.753Z,100384.16
2022-12-05T13:33:10.255Z,100393.00
2022-12-05T13:36:22.974Z,100393.00
2022-12-05T13:39:38.123Z,100378.72
2022-12-05T13:42:30.277Z,100392.84
2022-12-05T13:45:20.475Z,100391.69
2022-12-05T13:48:21.379Z,100390.19
2022-12-05T13:51:12.687Z,100387.91
2022-12-05T13:54:05.600Z,100374.59
2022-12-05T13:56:58.489Z,100393.91
2022-12-05T14:00:04.779Z,100403.38
2022-12-05T14:02:55.541Z,100389.06
2022-12-05T14:05:50.360Z,100396.25
2022-12-05T14:08:55.069Z,100398.00
2022-12-05T14:12:27.759Z,100400.84
2022-12-05T14:15:33.684Z,100369.66
2022-12-05T14:18:24.579Z,100410.06
2022-12-05T14:21:17.503Z,100407.88
2022-12-05T14:24:09.953Z,100409.41
2022-12-05T14:27:07.453Z,100411.88
2022-12-05T14:30:02.660Z,100421.88
2022-12-05T14:32:52.210Z,100414.56
2022-12-05T14:35:46.074Z,100413.56
2022-12-05T14:38:38.520Z,100417.41
2022-12-05T14:41:33.456Z,100420.75
2022-12-05T14:44:22.443Z,100415.13
2022-12-05T14:47:20.656Z,100423.91
2022-12-05T14:50:32.988Z,100411.44
2022-12-05T14:53:42.835Z,100422.59
2022-12-05T14:56:33.560Z,100302.53
2022-12-05T14:59:25.945Z,100414.94
2022-12-05T15:02:21.661Z,100422.44
2022-12-05T15:05:22.498Z,100419.31
2022-12-05T15:08:13.306Z,100421.13
2022-12-05T15:11:03.747Z,100439.94
2022-12-05T15:13:52.365Z,100423.66
2022-12-05T15:16:43.504Z,100419.81
2022-12-05T15:19:40.676Z,100422.94
2022-12-05T15:22:29.296Z,100422.31
2022-12-05T15:25:29.868Z,100425.97
2022-12-05T15:28:20.820Z,100194.53
2022-12-05T15:31:13.515Z,100437.28
2022-12-05T15:34:05.587Z,100432.13
2022-12-05T15:36:59.310Z,100430.47
2022-12-05T15:39:54.464Z,100436.97
2022-12-05T15:42:44.970Z,100437.13
2022-12-05T15:45:34.987Z,100393.22
2022-12-05T15:48:23.972Z,100405.38
2022-12-05T15:51:12.733Z,100450.28
2022-12-05T15:54:05.974Z,100449.63
2022-12-05T15:56:57.927Z,100456.94
2022-12-05T15:59:49.954Z,100454.25
2022-12-05T16:02:43.700Z,100454.59
2022-12-05T16:05:35.544Z,100457.78
2022-12-05T16:08:24.711Z,100428.66
2022-12-05T16:11:14.727Z,100430.31
2022-12-05T16:14:05.032Z,100416.84
2022-12-05T16:17:00.530Z,100446.47
2022-12-05T16:19:50.530Z,100444.13
2022-12-05T16:22:45.115Z,100435.97
2022-12-05T16:25:35.740Z,100449.47
2022-12-05T16:28:25.140Z,100431.31
2022-12-05T16:31:17.910Z,100453.31
2022-12-05T16:34:08.874Z,100429.81
2022-12-05T16:36:59.109Z,100451.28
2022-12-05T16:39:48.150Z,100435.47
2022-12-05T16:42:37.863Z,100457.28
2022-12-05T16:45:40.705Z,100458.28
2022-12-05T16:48:30.846Z,100452.28
2022-12-05T16:51:22.209Z,100426.00
2022-12-05T16:54:12.195Z,100459.28
2022-12-05T16:57:01.871Z,100447.28
2022-12-05T16:59:50.963Z,100460.94
2022-12-05T17:02:39.454Z,100463.78
2022-12-05T17:05:28.679Z,100458.78
2022-12-05T17:08:17.301Z,100470.28
2022-12-05T17:11:08.627Z,100464.09
2022-12-05T17:13:58.341Z,100469.59
2022-12-05T17:16:47.004Z,100475.56
2022-12-05T17:19:35.545Z,100474.09
2022-12-05T17:22:26.073Z,100474.94
2022-12-05T17:25:20.005Z,100466.75
2022-12-05T17:28:09.985Z,100463.25
2022-12-05T17:30:58.568Z,100444.94
2022-12-05T17:33:50.436Z,100473.91
2022-12-05T17:36:39.023Z,100472.38
2022-12-05T17:39:28.871Z,100483.50
2022-12-05T17:42:17.725Z,100478.34
2022-12-05T17:45:10.647Z,100481.03
2022-12-05T17:47:59.346Z,100483.84
2022-12-05T17:50:49.399Z,100224.81
2022-12-05T17:53:38.546Z,100474.38
2022-12-05T17:56:27.355Z,100476.50
2022-12-05T17:59:15.875Z,100478.38
2022-12-05T18:02:06.597Z,100475.53
2022-12-05T18:04:55.167Z,100485.84
2022-12-05T18:07:45.337Z,100454.34
2022-12-05T18:10:34.222Z,100465.53
2022-12-05T18:13:22.801Z,100485.63
2022-12-05T18:16:12.643Z,100483.66
2022-12-05T18:19:02.898Z,100487.97
2022-12-05T18:21:52.296Z,100464.81
2022-12-05T18:24:41.651Z,100493.78
2022-12-05T18:27:34.352Z,100383.94
2022-12-05T18:30:24.009Z,100483.81
2022-12-05T18:33:13.815Z,100480.16
2022-12-05T18:36:11.872Z,100484.47
2022-12-05T18:39:01.691Z,100469.47
2022-12-05T18:41:51.603Z,100487.44
2022-12-05T18:44:41.106Z,100430.34
2022-12-05T18:47:30.008Z,100483.63
2022-12-05T18:50:19.339Z,100484.94
2022-12-05T18:53:10.404Z,100485.75
2022-12-05T18:56:21.442Z,100503.88
2022-12-05T18:59:15.997Z,100486.06
2022-12-05T19:02:06.479Z,100493.69
2022-12-05T19:04:56.541Z,100501.16
2022-12-05T19:07:46.989Z,100485.34
2022-12-05T19:10:39.142Z,100497.34
2022-12-05T19:13:29.202Z,100475.34
2022-12-05T19:16:19.303Z,100493.03
2022-12-05T19:19:10.099Z,100465.19
2022-12-05T19:21:59.574Z,100485.50
2022-12-05T19:24:49.711Z,100468.41
2022-12-05T19:27:41.055Z,100487.19
2022-12-05T19:30:29.821Z,100474.13
2022-12-05T19:33:18.434Z,100481.22
2022-12-05T19:36:11.393Z,100474.06
2022-12-05T19:39:01.551Z,100478.31
2022-12-05T19:41:50.236Z,100449.13
2022-12-05T19:44:40.787Z,100480.25
2022-12-05T19:47:30.786Z,100481.41
2022-12-05T19:50:19.507Z,100478.53
2022-12-05T19:53:10.127Z,100444.59
2022-12-05T19:56:01.564Z,100485.00
2022-12-05T19:58:50.861Z,100476.75
2022-12-05T20:01:41.335Z,100492.91
2022-12-05T20:04:29.941Z,100494.44
2022-12-05T20:07:19.126Z,100502.56
2022-12-05T20:10:08.370Z,100503.16
2022-12-05T20:12:57.154Z,100500.19
2022-12-05T20:15:45.728Z,100496.34
2022-12-05T20:18:37.528Z,100497.31
2022-12-05T20:21:28.268Z,100499.00
2022-12-05T20:24:17.044Z,100495.19
2022-12-05T20:27:07.317Z,100388.72
2022-12-05T20:29:56.460Z,100491.94
2022-12-05T20:32:45.615Z,100497.91
2022-12-05T20:35:37.973Z,100501.41
2022-12-05T20:38:26.448Z,100500.84
2022-12-05T20:41:16.661Z,100498.34
2022-12-05T20:44:07.695Z,100506.16
2022-12-05T20:46:56.367Z,100499.19
2022-12-05T20:49:44.899Z,100502.00
2022-12-05T20:52:35.546Z,100494.34
2022-12-05T20:55:24.053Z,100515.97
2022-12-05T20:58:12.695Z,100507.84
2022-12-05T21:01:01.687Z,100506.31
2022-12-05T21:03:51.998Z,100503.50
2022-12-05T21:06:42.877Z,100513.03
2022-12-05T21:09:35.017Z,100502.09
2022-12-05T21:12:23.958Z,100500.25
2022-12-05T21:15:13.076Z,100499.63
2022-12-05T21:18:02.457Z,100506.63
2022-12-05T21:20:57.652Z,100467.00
2022-12-05T21:23:47.798Z,100493.97
2022-12-05T21:26:38.896Z,100499.47
2022-12-05T21:29:27.820Z,100505.16
2022-12-05T21:32:16.469Z,100501.50
2022-12-05T21:35:06.807Z,100503.66
2022-12-05T21:37:56.078Z,100500.47
2022-12-05T21:40:44.790Z,100506.97
2022-12-05T21:43:36.741Z,100514.47
2022-12-05T21:46:25.974Z,100514.09
2022-12-05T21:49:14.523Z,100503.31
2022-12-05T21:52:03.421Z,100496.88
2022-12-05T21:54:52.862Z,100493.22
2022-12-05T21:57:41.701Z,100491.66
2022-12-05T22:00:31.725Z,100495.13
2022-12-05T22:03:20.552Z,100498.69
2022-12-05T22:06:10.678Z,100489.91
2022-12-05T22:08:59.120Z,100491.41
2022-12-05T22:11:47.791Z,100498.59
2022-12-05T22:14:36.380Z,100499.09
2022-12-05T22:17:26.376Z,100474.38
2022-12-05T22:20:15.653Z,100496.66
2022-12-05T22:23:04.374Z,100492.19
2022-12-05T22:25:57.638Z,100465.66
2022-12-05T22:28:46.183Z,100500.22
2022-12-05T22:31:34.833Z,100505.53
2022-12-05T22:34:24.787Z,100499.38
2022-12-05T22:37:13.363Z,100508.50
2022-12-05T22:40:02.219Z,100500.22
2022-12-05T22:42:51.349Z,100493.19
2022-12-05T22:45:39.829Z,100499.81
2022-12-05T22:48:28.264Z,100485.16
2022-12-05T22:51:19.499Z,100493.13
2022-12-05T22:54:08.030Z,100493.28
2022-12-05T22:56:56.452Z,100487.75
2022-12-05T22:59:44.908Z,100490.09
2022-12-05T23:02:33.460Z,100489.88
2022-12-05T23:05:22.943Z,100491.75
2022-12-05T23:08:13.447Z,100474.06
2022-12-05T23:11:03.328Z,100487.16
2022-12-05T23:13:54.775Z,100465.00
2022-12-05T23:16:46.710Z,100473.84
2022-12-05T23:19:35.190Z,100468.91
2022-12-05T23:22:23.656Z,100478.44
2022-12-05T23:25:13.521Z,100427.50
2022-12-05T23:28:01.971Z,100473.84
2022-12-05T23:30:50.383Z,100468.50
2022-12-05T23:33:39.422Z,100470.56
2022-12-05T23:36:27.870Z,100473.31
2022-12-05T23:39:16.734Z,100463.00
2022-12-05T23:42:10.836Z,100470.44
2022-12-05T23:45:02.120Z,100468.41
2022-12-05T23:47:50.658Z,100465.75
2022-12-05T23:50:39.090Z,100473.56
2022-12-05T23:53:27.945Z,100471.41
2022-12-05T23:56:18.180Z,100472.88
2022-12-05T23:59:09.070Z,100470.97
